Belle River, Canada
Current Conditions -  °F | °C
As of 7:00 AM on Friday 24 Oct 2014 (Local Time) from CYQG Reporting Station
Scattered Clouds Scattered Clouds  
Wind Chill: 39°   Ceiling: Unl
Heat Index: 39°   Visibility: 10mi
Dew Point: 37°   Wind: 2mph
Humidity: 93%   Direction: 260°W
Pressure: 30.08"   Gusts: NA
Location:  42.3°N, 82.72°W
Report Text: CYQG 241100Z 26002KT 10SM SCT250 04/03 A3008 RMK CI4 SLP192
Loading
Personal Weather Stations






























Interactive Weather Map
Tropical Storm Tracking
New forecast layout! Learn more

10-Day Weather Forecast

Advertisements
Track Severe Weather on mobile